Time;durP1;ratioP1;P1;durP2;ratioP2;P2;SDS_P1;SDS_P2;PMS_P1;PMS_P2;Temp;Humidity;BMP_temperature;BMP_pressure;BME280_temperature;BME280_humidity;BME280_pressure;Samples;Min_cycle;Max_cycle;Signal;HPM_P1;HPM_P2
2022/12/28 00:01:49;;;;;;;5.40;2.05;;;8.50;99.90;;;;;;10511930;28;20085;-63
2022/12/28 00:06:50;;;;;;;3.95;2.05;;;8.50;99.90;;;;;;10516541;28;20024;-62
2022/12/28 00:11:51;;;;;;;5.88;2.00;;;8.40;99.90;;;;;;10507050;28;20201;-63
2022/12/28 00:16:51;;;;;;;3.60;2.00;;;8.40;99.90;;;;;;10532906;28;20388;-63
2022/12/28 00:21:53;;;;;;;6.05;2.05;;;8.50;99.90;;;;;;10499482;28;20496;-63
2022/12/28 00:26:55;;;;;;;4.30;1.98;;;8.40;99.90;;;;;;10493746;28;20485;-63
2022/12/28 00:31:56;;;;;;;6.00;2.30;;;8.40;99.90;;;;;;10490008;28;20031;-63
2022/12/28 00:36:56;;;;;;;3.13;2.10;;;8.40;99.90;;;;;;10489207;28;20036;-62
2022/12/28 00:41:57;;;;;;;3.97;1.90;;;8.40;99.90;;;;;;10487155;28;20013;-62
2022/12/28 00:46:57;;;;;;;4.05;2.15;;;8.40;99.90;;;;;;10491442;28;20032;-62
2022/12/28 00:51:58;;;;;;;3.50;2.10;;;8.40;99.90;;;;;;10492064;28;20020;-63
2022/12/28 00:56:59;;;;;;;6.13;2.20;;;8.40;99.90;;;;;;10487714;28;20039;-62
2022/12/28 01:01:59;;;;;;;4.47;1.83;;;8.40;99.90;;;;;;10486021;28;20021;-63
2022/12/28 01:07:00;;;;;;;6.18;2.88;;;8.40;99.90;;;;;;10501578;28;20035;-63
2022/12/28 01:12:01;;;;;;;7.95;2.80;;;8.40;99.90;;;;;;10485438;28;20017;-63
2022/12/28 01:17:01;;;;;;;3.33;2.10;;;8.40;99.90;;;;;;10490901;28;20178;-63
2022/12/28 01:22:02;;;;;;;5.20;2.20;;;8.40;99.90;;;;;;10492119;28;20027;-62
2022/12/28 01:27:02;;;;;;;4.18;2.33;;;8.40;99.90;;;;;;10485236;28;20068;-63
2022/12/28 01:32:03;;;;;;;4.53;2.40;;;8.40;99.90;;;;;;10485321;28;20034;-62
2022/12/28 01:37:04;;;;;;;4.50;2.08;;;8.40;99.90;;;;;;10485589;28;20104;-62
2022/12/28 01:42:04;;;;;;;5.72;2.25;;;8.40;99.90;;;;;;10481195;28;20337;-62
2022/12/28 01:47:09;;;;;;;5.72;2.55;;;8.40;99.90;;;;;;10488601;28;20388;-62
2022/12/28 01:52:12;;;;;;;4.75;2.42;;;8.40;99.90;;;;;;10484767;28;20017;-63
2022/12/28 01:57:14;;;;;;;4.97;2.30;;;8.40;99.90;;;;;;10492363;28;20583;-62
2022/12/28 02:02:15;;;;;;;4.40;2.42;;;8.40;99.90;;;;;;10479978;28;20024;-62
2022/12/28 02:07:34;;;;;;;3.10;2.20;;;8.40;99.90;;;;;;10484363;28;20408;-62
2022/12/28 02:12:34;;;;;;;4.63;2.00;;;8.40;99.90;;;;;;10480887;28;20481;-62
2022/12/28 02:17:35;;;;;;;5.43;2.17;;;8.40;99.90;;;;;;10485238;28;20347;-62
2022/12/28 02:22:45;;;;;;;4.20;2.15;;;8.40;99.90;;;;;;10487493;28;20414;-63
2022/12/28 02:28:01;;;;;;;5.00;2.13;;;8.40;99.90;;;;;;10484789;28;20087;-62
2022/12/28 02:33:26;;;;;;;6.43;2.42;;;8.40;99.90;;;;;;10490259;28;20028;-63
2022/12/28 02:38:38;;;;;;;2.60;2.08;;;8.40;99.90;;;;;;10483593;28;20077;-63
2022/12/28 02:43:39;;;;;;;3.95;2.10;;;8.40;99.90;;;;;;10483083;28;20398;-63
2022/12/28 03:00:19;;;;;;;4.38;2.28;;;8.40;99.90;;;;;;10486353;28;20143;-63
2022/12/28 03:11:14;;;;;;;5.00;2.08;;;8.40;99.90;;;;;;10483950;28;20095;-62
2022/12/28 03:25:41;;;;;;;4.97;2.20;;;8.40;99.90;;;;;;10486102;28;20027;-63
2022/12/28 03:32:39;;;;;;;3.13;2.17;;;8.40;99.90;;;;;;10490206;28;20433;-63
2022/12/28 03:37:52;;;;;;;3.85;2.30;;;8.80;99.90;;;;;;10485130;28;20012;-63
2022/12/28 03:48:15;;;;;;;2.60;1.70;;;8.40;99.90;;;;;;10482169;28;20028;-63
2022/12/28 03:53:19;;;;;;;4.38;2.30;;;8.40;99.90;;;;;;10481051;28;20009;-63
2022/12/28 03:58:21;;;;;;;3.92;2.17;;;8.40;99.90;;;;;;10489083;28;20028;-63
2022/12/28 04:03:21;;;;;;;2.58;2.10;;;8.40;99.90;;;;;;10499502;28;20201;-62
2022/12/28 04:08:22;;;;;;;4.07;2.08;;;8.40;99.90;;;;;;10489205;28;20033;-62
2022/12/28 04:13:22;;;;;;;5.53;2.30;;;8.40;99.90;;;;;;10496786;28;20051;-63
2022/12/28 04:18:23;;;;;;;4.95;1.83;;;8.50;99.90;;;;;;10493876;28;20252;-63
2022/12/28 04:23:24;;;;;;;3.65;1.90;;;8.50;99.90;;;;;;10491662;28;20516;-62
2022/12/28 04:28:25;;;;;;;3.50;1.90;;;8.40;99.90;;;;;;10495060;28;20503;-63
2022/12/28 04:33:26;;;;;;;2.25;1.80;;;8.50;99.90;;;;;;10488527;28;20157;-62
2022/12/28 04:38:27;;;;;;;2.25;1.67;;;8.50;99.90;;;;;;10487733;28;20373;-63
2022/12/28 04:43:29;;;;;;;2.08;1.65;;;8.50;99.90;;;;;;10488567;28;20029;-62
2022/12/28 04:48:30;;;;;;;1.60;1.33;;;8.50;99.90;;;;;;10494318;28;20073;-62
2022/12/28 04:53:34;;;;;;;3.53;1.70;;;8.50;99.90;;;;;;10488265;28;20444;-62
2022/12/28 04:58:35;;;;;;;2.40;1.80;;;8.50;99.90;;;;;;10495363;28;20028;-62
2022/12/28 05:03:38;;;;;;;4.05;1.60;;;8.30;99.90;;;;;;10487350;28;20483;-62
2022/12/28 05:08:40;;;;;;;2.78;1.70;;;8.50;99.90;;;;;;10487442;28;20193;-62
2022/12/28 05:13:40;;;;;;;3.63;2.00;;;8.50;99.90;;;;;;10484186;28;20048;-62
2022/12/28 05:18:41;;;;;;;4.55;1.60;;;8.50;99.90;;;;;;10489312;28;20636;-62
2022/12/28 05:23:43;;;;;;;2.63;1.85;;;8.50;99.90;;;;;;10484705;28;20027;-62
2022/12/28 05:28:44;;;;;;;3.25;1.80;;;8.50;99.90;;;;;;10500659;28;20043;-63
2022/12/28 05:33:46;;;;;;;2.85;1.75;;;8.50;99.90;;;;;;10481122;28;20021;-63
2022/12/28 05:38:46;;;;;;;1.83;1.55;;;8.50;99.90;;;;;;10504087;28;20027;-62
2022/12/28 05:43:48;;;;;;;2.03;1.58;;;8.50;99.90;;;;;;10485984;28;20021;-62
2022/12/28 05:48:49;;;;;;;2.97;1.92;;;8.50;99.90;;;;;;10502009;28;20480;-62
2022/12/28 05:53:50;;;;;;;2.92;2.08;;;8.60;99.90;;;;;;10495486;28;20553;-62
2022/12/28 05:58:53;;;;;;;2.00;1.65;;;8.60;99.90;;;;;;10501483;28;20016;-63
2022/12/28 06:03:57;;;;;;;1.52;1.33;;;8.60;99.90;;;;;;10498986;28;20024;-62
2022/12/28 06:08:58;;;;;;;2.55;1.77;;;8.60;99.90;;;;;;10502823;28;20040;-62
2022/12/28 06:14:01;;;;;;;3.53;1.80;;;8.60;99.90;;;;;;10494930;28;20218;-62
2022/12/28 06:19:07;;;;;;;2.50;1.52;;;8.60;99.90;;;;;;10492439;28;20028;-62
2022/12/28 06:24:08;;;;;;;4.13;2.20;;;8.60;99.90;;;;;;10489364;28;20021;-63
2022/12/28 06:29:10;;;;;;;2.53;1.83;;;8.60;99.90;;;;;;10487329;28;20230;-62
2022/12/28 06:34:10;;;;;;;2.40;1.90;;;8.70;99.90;;;;;;10491916;28;20024;-62
2022/12/28 06:39:12;;;;;;;2.55;1.88;;;8.70;99.90;;;;;;10491351;28;20066;-62
2022/12/28 06:44:14;;;;;;;2.78;1.88;;;8.60;99.90;;;;;;10494058;28;20017;-62
2022/12/28 06:49:17;;;;;;;3.58;2.13;;;8.70;99.90;;;;;;10499601;28;20366;-62
2022/12/28 06:54:18;;;;;;;3.22;2.15;;;8.60;99.90;;;;;;10490154;28;20104;-62
2022/12/28 06:59:19;;;;;;;2.58;2.03;;;8.70;99.90;;;;;;10504249;28;20012;-62
2022/12/28 07:04:19;;;;;;;2.08;1.88;;;8.70;99.90;;;;;;10492071;28;20024;-62
2022/12/28 07:09:20;;;;;;;2.20;2.00;;;8.70;99.90;;;;;;10484284;28;20037;-62
2022/12/28 07:14:20;;;;;;;4.18;1.90;;;8.70;99.90;;;;;;10492866;28;20511;-62
2022/12/28 07:19:21;;;;;;;2.90;1.95;;;8.70;99.90;;;;;;10495360;28;20082;-62
2022/12/28 07:24:22;;;;;;;3.50;1.95;;;8.70;99.90;;;;;;10508566;28;20020;-62
2022/12/28 07:29:22;;;;;;;3.92;2.50;;;8.70;99.90;;;;;;10492323;28;20047;-62
2022/12/28 07:34:23;;;;;;;3.70;1.88;;;8.80;99.90;;;;;;10489788;28;20028;-63
2022/12/28 07:39:23;;;;;;;3.33;2.15;;;8.80;99.90;;;;;;10497958;28;20012;-62
2022/12/28 07:44:24;;;;;;;2.72;1.90;;;8.80;99.90;;;;;;10909627;22;20024;-62
2022/12/28 07:49:25;;;;;;;4.03;2.00;;;8.80;99.90;;;;;;10409081;28;20045;-62
2022/12/28 07:54:25;;;;;;;3.42;2.10;;;8.80;99.90;;;;;;10409978;28;20501;-62
2022/12/28 07:59:26;;;;;;;4.25;2.28;;;8.80;99.90;;;;;;10409869;28;20437;-62
2022/12/28 08:04:26;;;;;;;2.90;2.10;;;8.80;99.90;;;;;;10407481;28;20041;-62
2022/12/28 08:09:27;;;;;;;2.28;1.73;;;8.80;99.90;;;;;;10405653;28;20022;-62
2022/12/28 08:14:29;;;;;;;2.30;1.90;;;8.80;99.90;;;;;;10405665;28;20374;-62
2022/12/28 08:19:30;;;;;;;2.33;1.80;;;8.80;99.90;;;;;;10408255;28;20265;-62
2022/12/28 08:24:30;;;;;;;3.65;2.03;;;8.90;99.90;;;;;;10405307;28;20027;-63
2022/12/28 08:29:31;;;;;;;2.63;1.88;;;8.80;99.90;;;;;;10404567;28;20021;-62
2022/12/28 08:34:32;;;;;;;2.67;1.92;;;8.90;99.90;;;;;;10404450;28;20079;-63
2022/12/28 08:39:32;;;;;;;2.78;1.88;;;8.90;99.90;;;;;;10401993;28;20492;-63
2022/12/28 08:44:33;;;;;;;2.63;1.80;;;8.90;99.90;;;;;;10404932;28;20041;-63
2022/12/28 08:49:33;;;;;;;2.30;1.65;;;8.90;99.90;;;;;;10403815;28;20028;-63
2022/12/28 08:54:34;;;;;;;3.10;2.00;;;8.90;99.90;;;;;;10403107;28;20205;-62
2022/12/28 08:59:34;;;;;;;2.25;1.77;;;8.90;99.90;;;;;;10402813;28;20152;-63
2022/12/28 09:04:35;;;;;;;3.40;1.80;;;8.90;99.90;;;;;;10404605;28;20009;-64
2022/12/28 09:09:36;;;;;;;2.75;2.00;;;8.90;99.90;;;;;;10398704;28;20052;-63
2022/12/28 09:14:36;;;;;;;2.35;1.90;;;8.90;99.90;;;;;;10400746;28;20025;-63
2022/12/28 09:19:37;;;;;;;3.55;1.90;;;9.00;99.90;;;;;;10402794;28;20503;-63
2022/12/28 09:24:37;;;;;;;2.35;1.85;;;9.00;99.90;;;;;;10402324;28;20025;-63
2022/12/28 09:29:38;;;;;;;2.72;1.88;;;9.00;99.90;;;;;;10401564;28;20037;-63
2022/12/28 09:34:38;;;;;;;2.53;1.70;;;9.00;99.90;;;;;;10401940;28;20029;-64
2022/12/28 09:39:39;;;;;;;2.30;1.80;;;9.00;99.90;;;;;;10399858;28;20070;-64
2022/12/28 09:45:07;;;;;;;3.22;2.17;;;9.00;99.90;;;;;;10400823;28;20501;-63
2022/12/28 09:50:17;;;;;;;2.10;1.50;;;9.00;99.90;;;;;;10402488;28;20120;-63
2022/12/28 09:55:19;;;;;;;3.25;2.08;;;9.10;99.90;;;;;;10417482;28;20025;-63
2022/12/28 10:00:23;;;;;;;2.10;1.70;;;9.10;99.90;;;;;;10402140;28;20026;-63
2022/12/28 10:05:25;;;;;;;2.25;1.80;;;9.10;99.90;;;;;;10401060;28;20022;-63
2022/12/28 10:10:27;;;;;;;3.13;1.95;;;9.10;99.90;;;;;;10402207;28;20029;-63
2022/12/28 10:15:28;;;;;;;3.15;1.70;;;9.10;99.90;;;;;;10401039;28;20390;-63
2022/12/28 10:20:30;;;;;;;2.72;1.73;;;9.10;99.90;;;;;;10395509;28;20021;-62
2022/12/28 10:25:31;;;;;;;2.05;1.65;;;9.20;99.90;;;;;;10402054;28;20021;-62
2022/12/28 10:30:42;;;;;;;3.05;1.80;;;9.20;99.90;;;;;;10398764;28;20061;-65
2022/12/28 10:35:51;;;;;;;3.65;1.70;;;9.20;99.90;;;;;;10402635;28;20049;-62
2022/12/28 10:41:05;;;;;;;2.40;1.83;;;9.20;99.90;;;;;;10400821;28;20055;-62
2022/12/28 10:46:15;;;;;;;2.63;1.88;;;9.20;99.90;;;;;;10391345;28;20048;-61
2022/12/28 10:51:19;;;;;;;2.58;1.80;;;9.20;99.90;;;;;;10396512;28;20033;-62
2022/12/28 10:56:21;;;;;;;2.83;1.80;;;9.20;99.90;;;;;;10394026;28;20044;-62
2022/12/28 11:01:27;;;;;;;2.53;1.60;;;9.20;99.90;;;;;;10398807;28;20029;-61
2022/12/28 11:06:30;;;;;;;2.67;2.00;;;9.20;99.90;;;;;;10399313;28;20121;-61
2022/12/28 11:11:32;;;;;;;2.35;1.80;;;9.30;99.90;;;;;;10398491;28;20065;-61
2022/12/28 11:16:36;;;;;;;2.15;1.80;;;9.30;99.90;;;;;;10401715;28;20009;-61
2022/12/28 11:21:37;;;;;;;1.90;1.67;;;9.30;99.90;;;;;;10394607;28;20021;-61
2022/12/28 11:26:41;;;;;;;2.47;1.67;;;9.30;99.90;;;;;;10402833;28;20014;-61
2022/12/28 11:32:05;;;;;;;3.67;1.70;;;9.30;99.90;;;;;;10403861;28;20068;-62
2022/12/28 11:37:12;;;;;;;1.88;1.63;;;9.40;99.90;;;;;;10402813;28;20087;-63
2022/12/28 11:42:31;;;;;;;2.72;1.80;;;9.30;99.90;;;;;;10400192;28;20022;-61
2022/12/28 11:47:33;;;;;;;2.45;1.77;;;9.30;99.90;;;;;;10398461;28;20405;-62
2022/12/28 11:52:44;;;;;;;2.67;1.58;;;9.40;99.90;;;;;;10402872;28;20026;-61
2022/12/28 11:57:45;;;;;;;2.50;1.73;;;9.30;99.90;;;;;;10403184;28;20048;-61
2022/12/28 12:02:59;;;;;;;2.63;1.77;;;9.30;99.90;;;;;;10402196;28;20063;-62
2022/12/28 12:08:01;;;;;;;2.78;1.70;;;9.30;99.90;;;;;;10402643;28;20033;-61
2022/12/28 12:13:24;;;;;;;2.35;1.70;;;9.30;99.90;;;;;;10401442;28;20068;-61
2022/12/28 12:18:28;;;;;;;3.90;1.58;;;9.30;99.90;;;;;;10406113;28;20451;-61
2022/12/28 12:23:34;;;;;;;2.55;1.95;;;8.90;99.90;;;;;;10408712;28;20067;-61
2022/12/28 12:29:04;;;;;;;2.28;1.90;;;9.30;99.90;;;;;;10408142;28;20396;-62
2022/12/28 12:34:14;;;;;;;2.40;1.88;;;9.40;99.90;;;;;;10407171;28;20188;-61
2022/12/28 12:39:22;;;;;;;2.05;1.70;;;9.40;99.90;;;;;;10407945;28;20386;-61
2022/12/28 12:45:04;;;;;;;2.40;1.40;;;9.40;99.90;;;;;;10407680;28;20034;-61
2022/12/28 12:50:22;;;;;;;2.15;1.63;;;9.40;99.90;;;;;;10399033;28;20045;-61
2022/12/28 12:55:37;;;;;;;2.45;1.67;;;9.40;99.90;;;;;;10406006;28;20021;-61
2022/12/28 13:01:18;;;;;;;3.28;1.67;;;9.40;99.90;;;;;;10406492;28;20156;-62
2022/12/28 13:06:28;;;;;;;1.98;1.60;;;9.40;99.90;;;;;;10404669;28;20501;-61
2022/12/28 13:11:30;;;;;;;1.67;1.33;;;9.40;99.90;;;;;;10404601;28;20076;-61
2022/12/28 13:16:31;;;;;;;1.77;1.30;;;9.40;99.90;;;;;;10405762;28;20327;-61
2022/12/28 13:21:43;;;;;;;2.22;1.60;;;9.40;99.90;;;;;;10407208;28;20474;-61
2022/12/28 13:26:44;;;;;;;2.15;1.30;;;9.40;99.90;;;;;;10399523;28;20421;-61
2022/12/28 13:31:48;;;;;;;2.15;1.20;;;9.40;99.90;;;;;;10396218;28;20118;-62
2022/12/28 13:36:58;;;;;;;2.22;1.40;;;9.40;99.90;;;;;;10405463;28;20052;-62
2022/12/28 13:42:04;;;;;;;2.38;1.35;;;9.40;99.90;;;;;;10406811;28;20032;-61
2022/12/28 13:47:22;;;;;;;1.38;1.20;;;9.50;99.90;;;;;;10401654;28;20160;-62
2022/12/28 13:52:52;;;;;;;2.60;1.23;;;9.50;99.90;;;;;;10403352;28;20052;-62
2022/12/28 13:57:57;;;;;;;1.52;1.23;;;9.40;99.90;;;;;;10403277;28;20082;-62
2022/12/28 14:02:59;;;;;;;1.88;1.20;;;9.40;99.90;;;;;;10403941;28;20140;-62
2022/12/28 14:07:59;;;;;;;1.23;1.13;;;9.50;99.90;;;;;;10403291;28;20084;-62
2022/12/28 14:13:02;;;;;;;1.58;1.10;;;9.50;99.90;;;;;;10403585;28;20051;-62
2022/12/28 14:18:03;;;;;;;2.10;1.23;;;9.40;99.90;;;;;;10401521;28;20017;-62
2022/12/28 14:23:20;;;;;;;7.50;1.50;;;9.50;99.90;;;;;;10401911;28;20389;-62
2022/12/28 14:28:42;;;;;;;1.75;1.27;;;9.50;99.90;;;;;;10401129;28;20103;-61
2022/12/28 14:33:53;;;;;;;1.48;1.23;;;9.50;99.90;;;;;;10395977;28;20018;-62
2022/12/28 14:38:56;;;;;;;2.47;1.60;;;9.40;99.90;;;;;;10401047;28;20033;-62
2022/12/28 14:44:00;;;;;;;4.47;1.85;;;9.50;99.90;;;;;;10400440;28;20253;-64
2022/12/28 14:49:29;;;;;;;2.97;2.10;;;9.50;99.90;;;;;;10401988;28;20120;-64
2022/12/28 14:54:31;;;;;;;2.13;1.83;;;9.60;99.90;;;;;;10399362;28;20029;-65
2022/12/28 14:59:38;;;;;;;3.97;1.90;;;9.60;99.90;;;;;;10399828;28;20049;-64
2022/12/28 15:04:40;;;;;;;2.42;1.88;;;9.60;99.90;;;;;;10400341;28;20056;-64
2022/12/28 15:09:41;;;;;;;3.53;1.88;;;9.60;99.90;;;;;;10401397;28;20033;-66
2022/12/28 15:14:42;;;;;;;3.65;2.50;;;9.60;99.90;;;;;;10401249;28;20448;-65
2022/12/28 15:19:46;;;;;;;5.03;2.05;;;9.60;99.90;;;;;;10401220;28;20029;-67
2022/12/28 15:24:47;;;;;;;3.55;2.28;;;9.60;99.90;;;;;;10401319;28;20076;-67
2022/12/28 15:29:48;;;;;;;5.18;2.30;;;9.60;99.90;;;;;;10398735;28;20432;-65
2022/12/28 15:34:48;;;;;;;5.25;2.25;;;9.60;99.90;;;;;;10400657;28;20013;-66
2022/12/28 15:39:49;;;;;;;5.28;2.22;;;9.60;99.90;;;;;;10398247;28;20047;-67
2022/12/28 15:44:51;;;;;;;3.83;2.38;;;9.60;99.90;;;;;;10396867;28;20026;-68
2022/12/28 15:49:52;;;;;;;4.05;2.05;;;9.50;99.90;;;;;;10398387;28;20037;-66
2022/12/28 15:54:53;;;;;;;3.85;1.92;;;9.60;99.90;;;;;;10406440;28;20017;-66
2022/12/28 15:59:54;;;;;;;4.18;2.00;;;9.60;99.90;;;;;;10405490;28;20116;-66
2022/12/28 16:04:54;;;;;;;5.18;1.85;;;9.60;99.90;;;;;;10403942;28;20021;-64
2022/12/28 16:09:55;;;;;;;5.68;2.28;;;9.60;99.90;;;;;;10407063;28;20040;-65
2022/12/28 16:14:56;;;;;;;5.18;1.90;;;9.60;99.90;;;;;;10405258;28;20022;-64
2022/12/28 16:19:57;;;;;;;4.55;2.20;;;9.60;99.90;;;;;;10407746;28;20132;-66
2022/12/28 16:24:57;;;;;;;3.92;1.90;;;9.60;99.90;;;;;;10405098;28;20377;-66
2022/12/28 16:29:58;;;;;;;5.28;1.92;;;9.60;99.90;;;;;;10403478;28;20052;-63
2022/12/28 16:34:58;;;;;;;3.28;2.20;;;9.60;99.90;;;;;;10402812;28;20030;-65
2022/12/28 16:39:59;;;;;;;3.80;1.80;;;9.60;99.90;;;;;;10401487;28;20028;-64
2022/12/28 16:45:00;;;;;;;3.92;2.20;;;9.60;99.90;;;;;;10401952;28;20033;-64
2022/12/28 16:50:00;;;;;;;6.22;2.03;;;9.60;99.90;;;;;;10401265;28;20044;-64
2022/12/28 16:55:01;;;;;;;3.40;2.20;;;9.60;99.90;;;;;;10401266;28;20022;-64
2022/12/28 17:00:02;;;;;;;3.22;2.13;;;9.60;99.90;;;;;;10400130;28;20393;-65
2022/12/28 17:05:03;;;;;;;4.63;2.25;;;9.60;99.90;;;;;;10402059;28;20036;-65
2022/12/28 17:10:04;;;;;;;4.70;2.20;;;9.60;99.90;;;;;;10397715;28;20037;-70
2022/12/28 17:15:05;;;;;;;6.63;2.13;;;9.60;99.90;;;;;;10402469;28;20025;-63
2022/12/28 17:20:06;;;;;;;5.95;2.05;;;9.70;99.90;;;;;;10400446;28;20033;-64
2022/12/28 17:25:07;;;;;;;1.98;1.40;;;9.70;99.90;;;;;;10400932;28;20079;-65
2022/12/28 17:30:08;;;;;;;4.72;1.83;;;9.70;99.90;;;;;;10398329;28;20230;-66
2022/12/28 17:35:09;;;;;;;3.67;1.90;;;9.60;99.90;;;;;;10397243;28;20109;-65
2022/12/28 17:40:10;;;;;;;5.68;1.75;;;9.60;99.90;;;;;;10403378;28;20032;-65
2022/12/28 17:45:15;;;;;;;3.58;1.70;;;9.70;99.90;;;;;;10402005;28;20363;-64
2022/12/28 17:50:16;;;;;;;7.00;1.85;;;9.60;99.90;;;;;;10395049;28;20037;-64
2022/12/28 17:55:17;;;;;;;5.40;2.05;;;9.60;99.90;;;;;;10391842;28;20025;-66
2022/12/28 18:00:18;;;;;;;4.75;1.95;;;9.60;99.90;;;;;;10395113;28;20036;-64
2022/12/28 18:05:18;;;;;;;4.38;1.95;;;9.60;99.90;;;;;;10396169;28;20029;-64
2022/12/28 18:10:21;;;;;;;5.30;2.28;;;9.60;99.90;;;;;;10395786;28;20033;-63
2022/12/28 18:15:21;;;;;;;3.63;1.83;;;9.60;99.90;;;;;;10396821;28;20018;-63
2022/12/28 18:20:22;;;;;;;4.70;1.92;;;9.70;99.90;;;;;;10394353;28;20462;-64
2022/12/28 18:25:23;;;;;;;4.95;2.20;;;9.70;99.90;;;;;;10394512;28;20476;-65
2022/12/28 18:30:24;;;;;;;4.43;2.50;;;9.60;99.90;;;;;;10394258;28;20029;-65
2022/12/28 18:35:25;;;;;;;6.65;2.25;;;9.60;99.90;;;;;;10395841;28;20500;-63
2022/12/28 18:40:26;;;;;;;5.43;2.13;;;9.20;99.90;;;;;;10399012;28;20033;-65
2022/12/28 18:45:26;;;;;;;3.55;2.13;;;9.60;99.90;;;;;;10391486;28;20111;-62
2022/12/28 18:50:27;;;;;;;5.85;2.28;;;9.60;99.90;;;;;;10395857;28;20053;-63
2022/12/28 18:55:27;;;;;;;5.03;2.45;;;9.60;99.90;;;;;;10393171;28;20030;-63
2022/12/28 19:00:28;;;;;;;6.10;2.60;;;9.70;99.90;;;;;;10382744;28;20033;-63
2022/12/28 19:05:29;;;;;;;4.28;2.15;;;9.60;99.90;;;;;;10388640;28;20025;-63
2022/12/28 19:10:29;;;;;;;4.10;2.50;;;9.70;99.90;;;;;;10392460;28;20034;-63
2022/12/28 19:15:30;;;;;;;4.20;2.17;;;9.60;99.90;;;;;;10395526;28;20025;-63
2022/12/28 19:20:31;;;;;;;3.20;2.22;;;9.60;99.90;;;;;;10389552;28;20486;-63
2022/12/28 19:25:31;;;;;;;5.93;2.42;;;9.60;99.90;;;;;;10393462;28;20037;-63
2022/12/28 19:30:32;;;;;;;3.08;2.25;;;9.60;99.90;;;;;;10396795;28;20030;-63
2022/12/28 19:35:33;;;;;;;3.03;2.15;;;9.60;99.90;;;;;;10395418;28;20044;-63
2022/12/28 19:40:33;;;;;;;5.10;2.22;;;9.60;99.90;;;;;;10396439;28;20053;-63
2022/12/28 19:45:34;;;;;;;2.85;2.20;;;9.60;99.90;;;;;;10399175;28;20041;-63
2022/12/28 19:50:34;;;;;;;4.35;2.20;;;9.60;99.90;;;;;;10406837;28;20029;-63
2022/12/28 19:55:36;;;;;;;4.32;2.10;;;9.60;99.90;;;;;;10397340;28;20021;-63
2022/12/28 20:00:36;;;;;;;4.50;2.30;;;9.60;99.90;;;;;;10395841;28;20079;-63
2022/12/28 20:05:37;;;;;;;4.03;2.15;;;9.60;99.90;;;;;;10397797;28;20543;-63
2022/12/28 20:10:37;;;;;;;2.38;1.80;;;10.50;99.90;;;;;;10392886;28;20029;-63
2022/12/28 20:15:40;;;;;;;3.85;2.40;;;9.60;99.90;;;;;;10399082;28;20033;-63
2022/12/28 20:20:41;;;;;;;3.03;2.20;;;9.60;99.90;;;;;;10402911;28;21445;-63
2022/12/28 20:25:50;;;;;;;2.90;2.00;;;9.60;99.90;;;;;;10401939;28;20079;-63
2022/12/28 20:30:50;;;;;;;2.97;1.63;;;9.60;99.90;;;;;;10397112;28;20087;-64
2022/12/28 20:35:59;;;;;;;2.78;1.83;;;9.60;99.90;;;;;;10428635;28;20299;-64
2022/12/28 20:41:02;;;;;;;1.98;1.60;;;9.60;99.90;;;;;;10439414;28;20017;-63
2022/12/28 20:46:10;;;;;;;3.38;1.90;;;9.70;99.90;;;;;;10442334;28;20116;-63
2022/12/28 20:51:11;;;;;;;2.50;1.80;;;9.60;99.90;;;;;;10444041;28;20032;-63
2022/12/28 20:56:11;;;;;;;2.75;1.42;;;9.70;99.90;;;;;;10436810;28;20021;-64
2022/12/28 21:01:13;;;;;;;1.77;1.40;;;9.70;99.90;;;;;;10439351;28;20029;-63
2022/12/28 21:06:14;;;;;;;2.47;1.80;;;9.60;99.90;;;;;;10439355;28;20022;-63
2022/12/28 21:11:15;;;;;;;4.40;2.15;;;9.60;99.90;;;;;;10440609;28;20026;-63
2022/12/28 21:16:17;;;;;;;2.22;1.52;;;9.70;99.90;;;;;;10438842;28;20077;-63
2022/12/28 21:21:23;;;;;;;2.53;1.60;;;9.70;99.90;;;;;;10437910;28;20300;-63
2022/12/28 21:26:24;;;;;;;1.70;1.40;;;9.70;99.90;;;;;;10430863;28;20093;-63
2022/12/28 21:31:25;;;;;;;2.15;1.60;;;9.70;99.90;;;;;;10421123;28;20025;-63
2022/12/28 21:36:26;;;;;;;1.85;1.33;;;9.70;99.90;;;;;;10403696;28;20138;-63
2022/12/28 21:46:48;;;;;;;5.57;1.90;;;9.70;99.90;;;;;;10394053;28;20402;-63
2022/12/28 21:51:50;;;;;;;2.75;1.90;;;9.70;99.90;;;;;;10393443;28;20021;-63
2022/12/28 21:56:53;;;;;;;3.83;1.85;;;9.70;99.90;;;;;;10390711;28;20432;-63
2022/12/28 22:07:14;;;;;;;;;;;9.70;99.90;;;;;;10389387;28;20100;-64
2022/12/28 22:17:33;;;;;;;4.15;2.10;;;9.80;99.90;;;;;;10394187;28;20583;-62
2022/12/28 22:22:34;;;;;;;2.67;2.20;;;9.80;99.90;;;;;;10397548;28;20044;-63
2022/12/28 22:27:35;;;;;;;2.28;1.70;;;9.80;99.90;;;;;;10389714;28;20029;-63
2022/12/28 22:32:35;;;;;;;2.78;2.00;;;9.80;99.90;;;;;;10397712;28;20037;-64
2022/12/28 22:37:36;;;;;;;2.83;1.95;;;9.80;99.90;;;;;;10396861;28;20692;-63
2022/12/28 22:42:41;;;;;;;3.42;2.15;;;9.80;99.90;;;;;;10400077;28;20021;-63
2022/12/28 22:47:42;;;;;;;2.40;1.70;;;9.80;99.90;;;;;;10391320;28;20544;-63
2022/12/28 22:52:43;;;;;;;3.13;2.17;;;9.80;99.90;;;;;;10391005;28;20026;-63
2022/12/28 22:57:44;;;;;;;3.38;2.05;;;9.80;99.90;;;;;;10395574;28;20029;-63
2022/12/28 23:02:44;;;;;;;2.72;2.10;;;9.80;99.90;;;;;;10391580;28;20137;-63
2022/12/28 23:07:45;;;;;;;2.63;2.20;;;9.80;99.90;;;;;;10395762;28;20371;-63
2022/12/28 23:12:47;;;;;;;3.47;2.33;;;9.90;99.90;;;;;;10397324;28;20046;-63
2022/12/28 23:27:18;;;;;;;2.33;1.98;;;9.90;99.90;;;;;;10395708;28;20017;-64
2022/12/28 23:28:29;;;;;;;3.05;2.15;;;9.90;99.90;;;;;;10394409;28;20396;-63
2022/12/28 23:33:30;;;;;;;3.35;2.20;;;9.90;99.90;;;;;;10398077;28;20020;-62
2022/12/28 23:38:32;;;;;;;3.22;2.08;;;9.90;99.90;;;;;;10397528;28;20049;-63
2022/12/28 23:43:32;;;;;;;2.63;2.28;;;9.90;99.90;;;;;;10392500;28;20496;-62
2022/12/28 23:48:33;;;;;;;3.30;1.98;;;9.90;99.90;;;;;;10395085;28;20041;-63
2022/12/28 23:53:33;;;;;;;2.40;1.88;;;9.90;99.90;;;;;;10396891;28;20458;-63
2022/12/28 23:58:34;;;;;;;2.65;1.95;;;9.90;99.90;;;;;;10397560;28;20079;-63
